Time;durP1;ratioP1;P1;durP2;ratioP2;P2;SDS_P1;SDS_P2;PMS_P1;PMS_P2;Temp;Humidity;BMP_temperature;BMP_pressure;BME280_temperature;BME280_humidity;BME280_pressure;Samples;Min_cycle;Max_cycle;Signal;HPM_P1;HPM_P2
2023/01/06 00:01:15;;;;;;;7.10;1.67;;;10.70;99.90;;;;;;4965114;28;20498;-72
2023/01/06 00:03:41;;;;;;;7.13;2.25;;;10.60;99.90;;;;;;4951690;28;20057;-72
2023/01/06 00:06:10;;;;;;;4.07;1.73;;;10.60;99.90;;;;;;4980859;28;20022;-72
2023/01/06 00:08:37;;;;;;;6.28;1.95;;;10.70;99.90;;;;;;4983599;28;20106;-72
2023/01/06 00:11:11;;;;;;;6.95;2.28;;;10.70;99.90;;;;;;4967433;28;20037;-72
2023/01/06 00:13:38;;;;;;;7.38;2.40;;;10.70;99.90;;;;;;4965379;28;20084;-71
2023/01/06 00:16:10;;;;;;;5.78;2.97;;;10.80;99.90;;;;;;4964503;28;20026;-72
2023/01/06 00:18:36;;;;;;;4.55;1.95;;;10.80;99.90;;;;;;4988608;28;20490;-72
2023/01/06 00:21:03;;;;;;;9.48;2.75;;;10.70;99.90;;;;;;4991848;28;20042;-72
2023/01/06 00:23:29;;;;;;;3.78;1.88;;;10.70;99.90;;;;;;4984497;28;20098;-72
2023/01/06 00:25:55;;;;;;;5.03;2.80;;;10.70;99.90;;;;;;4987836;28;20030;-73
2023/01/06 00:28:21;;;;;;;3.83;2.28;;;10.70;99.90;;;;;;4973899;28;20030;-70
2023/01/06 00:30:46;;;;;;;6.75;2.17;;;10.70;99.90;;;;;;4991335;28;20479;-71
2023/01/06 00:33:12;;;;;;;4.95;2.03;;;10.70;99.90;;;;;;4992296;28;20049;-71
2023/01/06 00:35:38;;;;;;;4.57;2.70;;;10.80;99.90;;;;;;4992689;28;20038;-71
2023/01/06 00:38:04;;;;;;;4.13;1.55;;;10.80;99.90;;;;;;4991538;28;20577;-71
2023/01/06 00:40:29;;;;;;;2.83;1.80;;;10.80;99.90;;;;;;4975273;28;20034;-71
2023/01/06 00:42:55;;;;;;;7.25;1.98;;;10.80;99.90;;;;;;4990874;28;20033;-71
2023/01/06 00:45:20;;;;;;;2.63;1.55;;;10.90;99.90;;;;;;4988289;28;20034;-72
2023/01/06 00:47:46;;;;;;;2.38;1.40;;;10.90;99.90;;;;;;4992087;28;20038;-72
2023/01/06 00:50:12;;;;;;;4.38;2.47;;;10.80;99.90;;;;;;4990287;28;20572;-71
2023/01/06 00:52:38;;;;;;;5.85;2.00;;;10.80;99.90;;;;;;4985943;28;20046;-72
2023/01/06 00:55:05;;;;;;;5.03;2.10;;;10.80;99.90;;;;;;4988985;28;20625;-71
2023/01/06 00:57:31;;;;;;;7.35;2.83;;;10.80;99.90;;;;;;4988105;28;20121;-72
2023/01/06 00:59:57;;;;;;;7.70;2.78;;;10.80;99.90;;;;;;4984083;28;20398;-71
2023/01/06 01:02:22;;;;;;;5.65;2.15;;;10.80;99.90;;;;;;4991951;28;20093;-72
2023/01/06 01:04:48;;;;;;;4.88;1.70;;;10.80;99.90;;;;;;4991690;28;20038;-72
2023/01/06 01:07:14;;;;;;;3.40;2.28;;;10.90;99.90;;;;;;4974309;28;20061;-72
2023/01/06 01:09:40;;;;;;;4.07;2.08;;;10.80;99.90;;;;;;4973836;28;20486;-72
2023/01/06 01:12:08;;;;;;;9.00;2.40;;;10.90;99.90;;;;;;4971923;28;20089;-71
2023/01/06 01:14:48;;;;;;;2.70;1.70;;;10.90;99.90;;;;;;4985776;28;20042;-72
2023/01/06 01:17:26;;;;;;;3.83;1.90;;;10.90;99.90;;;;;;4974083;28;20038;-71
2023/01/06 01:19:54;;;;;;;4.32;2.08;;;11.00;99.90;;;;;;4989654;28;20069;-71
2023/01/06 01:22:25;;;;;;;4.43;1.60;;;11.00;99.90;;;;;;5025625;23;20053;-81
2023/01/06 01:24:51;;;;;;;3.38;1.95;;;11.00;99.90;;;;;;5030530;28;20029;-82
2023/01/06 01:27:17;;;;;;;4.28;2.28;;;11.00;99.90;;;;;;5024186;28;20037;-82
2023/01/06 01:29:43;;;;;;;3.70;1.58;;;11.00;99.90;;;;;;5031352;28;20070;-82
2023/01/06 01:32:09;;;;;;;3.22;1.88;;;11.00;99.90;;;;;;5003603;28;20030;-82
2023/01/06 01:34:35;;;;;;;3.45;1.85;;;11.10;99.90;;;;;;5007823;28;20042;-84
2023/01/06 01:37:02;;;;;;;2.75;2.20;;;11.00;99.90;;;;;;5007773;28;20085;-82
2023/01/06 01:39:29;;;;;;;3.80;2.00;;;11.00;99.90;;;;;;5018872;28;20113;-82
2023/01/06 01:41:57;;;;;;;2.90;1.33;;;11.00;99.90;;;;;;5011171;28;20029;-82
2023/01/06 01:44:54;;;;;;;8.25;1.70;;;11.00;99.90;;;;;;5011417;28;20026;-82
2023/01/06 01:48:05;;;;;;;4.20;1.25;;;11.00;99.90;;;;;;5018098;28;20038;-82
2023/01/06 01:50:49;;;;;;;4.40;1.45;;;11.10;99.90;;;;;;4977345;28;20030;-82
2023/01/06 01:53:29;;;;;;;4.55;2.17;;;11.10;99.90;;;;;;5016213;28;20038;-83
2023/01/06 01:55:59;;;;;;;5.40;1.90;;;11.10;99.90;;;;;;5023708;28;20034;-83
2023/01/06 01:58:41;;;;;;;2.70;1.80;;;11.10;99.90;;;;;;5018106;28;20685;-82
2023/01/06 02:01:09;;;;;;;2.70;1.13;;;11.10;99.90;;;;;;5025183;28;20077;-82
2023/01/06 02:03:37;;;;;;;3.15;1.63;;;11.10;99.90;;;;;;5007292;28;20022;-83
2023/01/06 02:06:08;;;;;;;5.70;1.65;;;11.10;99.90;;;;;;5004477;28;20133;-82
2023/01/06 02:09:02;;;;;;;6.10;1.88;;;11.10;99.90;;;;;;4993328;28;20038;-83
2023/01/06 02:11:32;;;;;;;4.22;2.13;;;11.00;99.90;;;;;;5009019;28;20033;-83
2023/01/06 02:14:19;;;;;;;4.22;2.20;;;11.10;99.90;;;;;;5002035;28;20050;-83
2023/01/06 02:17:20;;;;;;;6.70;1.65;;;11.00;99.90;;;;;;4976358;28;20113;-84
2023/01/06 02:20:37;;;;;;;3.58;2.10;;;11.00;99.90;;;;;;5014446;28;20030;-83
2023/01/06 02:23:29;;;;;;;4.60;1.90;;;11.10;99.90;;;;;;5010061;28;20046;-83
2023/01/06 02:26:35;;;;;;;4.53;2.33;;;11.00;99.90;;;;;;5008428;28;20042;-83
2023/01/06 02:29:19;;;;;;;2.95;1.60;;;11.00;99.90;;;;;;5000058;28;20099;-84
2023/01/06 02:31:48;;;;;;;3.40;1.60;;;11.00;99.90;;;;;;5014134;28;20440;-84
2023/01/06 02:34:32;;;;;;;2.65;1.10;;;11.00;99.90;;;;;;5014663;28;20084;-83
2023/01/06 02:37:11;;;;;;;5.00;2.25;;;10.90;99.90;;;;;;5014116;28;20037;-83
2023/01/06 02:40:10;;;;;;;5.15;1.67;;;11.00;99.90;;;;;;5010568;28;20021;-84
2023/01/06 02:43:19;;;;;;;2.85;1.55;;;11.00;99.90;;;;;;5007609;28;20397;-83
2023/01/06 02:46:10;;;;;;;4.78;1.80;;;11.00;99.90;;;;;;5014581;28;20117;-83
2023/01/06 02:48:57;;;;;;;;;;;10.90;99.90;;;;;;5016374;28;20040;-83
2023/01/06 02:51:36;;;;;;;4.47;2.15;;;10.90;99.90;;;;;;4997594;28;20346;-87
2023/01/06 02:54:13;;;;;;;5.50;2.00;;;10.90;99.90;;;;;;5008306;28;20133;-84
2023/01/06 02:56:48;;;;;;;4.60;2.60;;;10.80;99.90;;;;;;5014493;28;20026;-84
2023/01/06 02:59:31;;;;;;;5.30;2.47;;;10.80;99.90;;;;;;5005935;28;20026;-84
2023/01/06 03:01:59;;;;;;;3.05;1.63;;;10.70;99.90;;;;;;5021302;28;20077;-84
2023/01/06 03:04:38;;;;;;;5.43;1.98;;;10.70;99.90;;;;;;5021008;28;20125;-84
2023/01/06 03:07:06;;;;;;;3.17;1.65;;;10.70;99.90;;;;;;5012315;28;20097;-84
2023/01/06 03:09:36;;;;;;;7.38;2.25;;;10.60;99.90;;;;;;5021413;28;20026;-84
2023/01/06 03:12:46;;;;;;;3.60;1.20;;;10.60;99.90;;;;;;5023883;28;20034;-84
2023/01/06 03:15:12;;;;;;;5.95;1.88;;;10.60;99.90;;;;;;5006855;28;20046;-84
2023/01/06 03:17:37;;;;;;;3.53;1.67;;;10.70;99.90;;;;;;5013511;28;20041;-83
2023/01/06 03:20:03;;;;;;;4.63;2.58;;;10.70;99.90;;;;;;5021152;28;20038;-84
2023/01/06 03:22:30;;;;;;;4.60;1.98;;;10.70;99.90;;;;;;5013602;28;20112;-84
2023/01/06 03:24:57;;;;;;;2.35;1.48;;;10.70;99.90;;;;;;5020985;28;20025;-84
2023/01/06 03:27:26;;;;;;;3.13;2.05;;;10.60;99.90;;;;;;5020912;28;20607;-84
2023/01/06 03:29:53;;;;;;;3.75;2.10;;;10.60;99.90;;;;;;5014243;28;20113;-83
2023/01/06 03:32:37;;;;;;;6.32;2.88;;;10.60;99.90;;;;;;5018026;28;20557;-84
2023/01/06 03:35:27;;;;;;;3.05;1.70;;;10.60;99.90;;;;;;5019584;28;20029;-84
2023/01/06 03:38:08;;;;;;;3.75;2.33;;;10.50;99.90;;;;;;4995119;28;20038;-84
2023/01/06 03:40:54;;;;;;;4.10;2.55;;;10.50;99.90;;;;;;5013000;28;20057;-85
2023/01/06 03:44:01;;;;;;;4.40;1.77;;;10.60;99.90;;;;;;4998153;28;20061;-85
2023/01/06 03:46:45;;;;;;;2.85;1.83;;;10.50;99.90;;;;;;4997077;28;20512;-84
2023/01/06 03:49:30;;;;;;;6.25;1.50;;;10.50;99.90;;;;;;5005538;28;20056;-84
2023/01/06 03:52:28;;;;;;;5.00;2.08;;;10.50;99.90;;;;;;5021501;28;20026;-84
2023/01/06 03:55:14;;;;;;;1.92;1.60;;;10.50;99.90;;;;;;5014300;28;20049;-84
2023/01/06 03:57:45;;;;;;;9.10;2.22;;;10.40;99.90;;;;;;5014722;28;20068;-85
2023/01/06 04:00:30;;;;;;;2.65;1.60;;;10.40;99.90;;;;;;5020678;28;20097;-84
2023/01/06 04:02:56;;;;;;;4.60;2.00;;;10.40;99.90;;;;;;5006349;28;20037;-84
2023/01/06 04:05:25;;;;;;;3.58;2.10;;;10.50;99.90;;;;;;5012914;28;20030;-85
2023/01/06 04:07:51;;;;;;;5.25;2.20;;;10.50;99.90;;;;;;5011838;28;20033;-85
2023/01/06 04:10:20;;;;;;;9.18;2.38;;;10.50;99.90;;;;;;5020509;28;20519;-84
2023/01/06 04:12:45;;;;;;;2.78;1.95;;;10.50;99.90;;;;;;5009901;28;20089;-84
2023/01/06 04:15:16;;;;;;;3.58;1.85;;;10.40;99.90;;;;;;5006216;28;20494;-84
2023/01/06 04:17:43;;;;;;;4.82;1.88;;;10.40;99.90;;;;;;5008848;28;20029;-85
2023/01/06 04:20:15;;;;;;;3.30;1.85;;;10.40;99.90;;;;;;5021036;28;20109;-84
2023/01/06 04:22:41;;;;;;;3.72;1.75;;;10.50;99.90;;;;;;5011275;28;20397;-84
2023/01/06 04:25:07;;;;;;;1.80;1.27;;;10.50;99.90;;;;;;5013135;28;20505;-84
2023/01/06 04:27:33;;;;;;;3.75;1.75;;;10.50;99.90;;;;;;5012064;28;20034;-84
2023/01/06 04:29:59;;;;;;;3.33;1.50;;;10.60;99.90;;;;;;5012757;28;20040;-84
2023/01/06 04:32:25;;;;;;;2.45;1.50;;;10.60;99.90;;;;;;5012242;28;20065;-84
2023/01/06 04:34:50;;;;;;;2.88;1.60;;;10.60;99.90;;;;;;5013105;28;20029;-83
2023/01/06 04:37:17;;;;;;;3.78;1.50;;;10.50;99.90;;;;;;5012192;28;20038;-84
2023/01/06 04:39:42;;;;;;;3.30;1.95;;;10.60;99.90;;;;;;5012349;28;20026;-83
2023/01/06 04:42:08;;;;;;;3.75;2.22;;;10.60;99.90;;;;;;5011188;28;20025;-83
2023/01/06 04:44:34;;;;;;;2.20;1.45;;;10.60;99.90;;;;;;5025426;28;20034;-84
2023/01/06 04:47:00;;;;;;;2.85;1.60;;;10.60;99.90;;;;;;5008471;28;20033;-84
2023/01/06 04:49:25;;;;;;;2.35;1.23;;;10.60;99.90;;;;;;5026141;28;20045;-83
2023/01/06 04:51:51;;;;;;;7.05;1.48;;;10.60;99.90;;;;;;5011560;28;20034;-84
2023/01/06 04:54:17;;;;;;;5.75;1.75;;;10.60;99.90;;;;;;5011525;28;20030;-84
2023/01/06 04:56:43;;;;;;;14.65;1.80;;;10.60;99.90;;;;;;5011364;28;20497;-83
2023/01/06 04:59:08;;;;;;;3.05;1.67;;;10.50;99.90;;;;;;5012091;28;20474;-83
2023/01/06 05:01:35;;;;;;;6.22;1.60;;;10.50;99.90;;;;;;5021730;28;20034;-83
2023/01/06 05:04:01;;;;;;;6.88;1.88;;;10.50;99.90;;;;;;5026767;28;20037;-87
2023/01/06 05:06:27;;;;;;;5.00;1.92;;;10.40;99.90;;;;;;5026077;28;20065;-88
2023/01/06 05:08:53;;;;;;;3.72;2.03;;;10.40;99.90;;;;;;4993400;28;20030;-88
2023/01/06 05:11:23;;;;;;;2.42;1.17;;;10.40;99.90;;;;;;4994622;28;20055;-88
2023/01/06 05:13:49;;;;;;;5.63;1.45;;;10.40;99.90;;;;;;4993076;28;20324;-86
2023/01/06 05:16:30;;;;;;;4.63;1.80;;;10.40;99.90;;;;;;5029171;28;20109;-87
2023/01/06 05:18:57;;;;;;;6.45;2.28;;;10.40;99.90;;;;;;5013045;28;20038;-85
2023/01/06 05:21:25;;;;;;;3.53;1.95;;;10.40;99.90;;;;;;5027562;28;20021;-86
2023/01/06 05:23:52;;;;;;;5.15;2.35;;;10.50;99.90;;;;;;5012838;28;20041;-86
2023/01/06 05:26:22;;;;;;;3.30;2.05;;;10.40;99.90;;;;;;5027627;28;20030;-86
2023/01/06 05:28:48;;;;;;;9.60;2.80;;;10.50;99.90;;;;;;5012960;28;20068;-86
2023/01/06 05:31:14;;;;;;;3.97;1.67;;;10.50;99.90;;;;;;5012270;28;20022;-85
2023/01/06 05:33:40;;;;;;;6.68;2.20;;;10.50;99.90;;;;;;4953065;28;20038;-86
2023/01/06 05:36:10;;;;;;;3.63;2.03;;;10.40;99.90;;;;;;5012292;28;20033;-85
2023/01/06 05:38:36;;;;;;;4.38;1.83;;;10.40;99.90;;;;;;5006783;28;20155;-83
2023/01/06 05:41:02;;;;;;;3.53;1.27;;;10.40;99.90;;;;;;5012448;28;20109;-84
2023/01/06 05:43:28;;;;;;;2.17;1.45;;;10.30;99.90;;;;;;5012047;28;20109;-79
2023/01/06 05:45:55;;;;;;;5.03;1.75;;;10.30;99.90;;;;;;5012476;28;20034;-83
2023/01/06 05:48:27;;;;;;;3.47;1.65;;;10.30;99.90;;;;;;5018568;28;20033;-84
2023/01/06 05:51:01;;;;;;;1.70;1.10;;;10.20;99.90;;;;;;4940081;28;20046;-80
2023/01/06 05:53:30;;;;;;;1.90;1.00;;;10.30;99.90;;;;;;5011024;28;20604;-77
2023/01/06 05:56:00;;;;;;;1.85;1.08;;;10.20;99.90;;;;;;5024336;28;20039;-84
2023/01/06 05:58:26;;;;;;;2.53;1.25;;;10.20;99.90;;;;;;4991488;28;20034;-84
2023/01/06 06:00:51;;;;;;;3.20;1.38;;;10.10;99.90;;;;;;5013003;28;20030;-83
2023/01/06 06:03:17;;;;;;;3.75;1.77;;;10.10;99.90;;;;;;5009814;28;20088;-85
2023/01/06 06:05:43;;;;;;;2.95;1.65;;;10.10;99.90;;;;;;5012039;28;20046;-75
2023/01/06 06:08:08;;;;;;;4.35;1.50;;;10.10;99.90;;;;;;5013649;28;20032;-77
2023/01/06 06:10:34;;;;;;;4.28;2.00;;;10.10;99.90;;;;;;5014883;28;20367;-77
2023/01/06 06:13:00;;;;;;;3.67;1.70;;;10.10;99.90;;;;;;5013829;28;20103;-77
2023/01/06 06:15:25;;;;;;;3.17;1.63;;;10.10;99.90;;;;;;5015149;28;20021;-73
2023/01/06 06:17:51;;;;;;;2.88;1.90;;;10.10;99.90;;;;;;5013566;28;20038;-77
2023/01/06 06:20:17;;;;;;;4.45;1.98;;;10.20;99.90;;;;;;5014786;28;20699;-76
2023/01/06 06:22:42;;;;;;;3.08;1.63;;;10.20;99.90;;;;;;5013528;28;20041;-77
2023/01/06 06:25:08;;;;;;;3.50;1.52;;;10.10;99.90;;;;;;5014484;28;20026;-77
2023/01/06 06:27:34;;;;;;;4.90;2.25;;;10.10;99.90;;;;;;5013855;28;20030;-77
2023/01/06 06:30:00;;;;;;;4.03;1.58;;;10.00;99.90;;;;;;5014387;28;20034;-77
2023/01/06 06:32:29;;;;;;;2.70;1.08;;;10.00;99.90;;;;;;5014055;28;20038;-77
2023/01/06 06:34:55;;;;;;;4.63;1.80;;;10.00;99.90;;;;;;5014590;28;20030;-78
2023/01/06 06:37:21;;;;;;;2.72;2.03;;;10.00;99.90;;;;;;5013534;28;20041;-77
2023/01/06 06:39:47;;;;;;;3.85;1.23;;;10.00;99.90;;;;;;5021424;28;20152;-76
2023/01/06 06:42:12;;;;;;;3.13;1.58;;;10.00;99.90;;;;;;5013653;28;20116;-78
2023/01/06 06:44:38;;;;;;;5.43;1.35;;;9.90;99.90;;;;;;5014348;28;20026;-78
2023/01/06 06:47:04;;;;;;;2.83;1.50;;;9.90;99.90;;;;;;5013193;28;20482;-76
2023/01/06 06:49:29;;;;;;;1.90;1.15;;;9.90;99.90;;;;;;5014225;28;20037;-78
2023/01/06 06:51:55;;;;;;;2.35;1.27;;;9.90;99.90;;;;;;5013114;28;20037;-77
2023/01/06 06:54:21;;;;;;;3.38;1.13;;;9.90;99.90;;;;;;5014097;28;20053;-76
2023/01/06 06:56:46;;;;;;;2.15;0.93;;;9.90;99.90;;;;;;5011713;28;20034;-77
2023/01/06 06:59:12;;;;;;;5.65;1.10;;;10.00;99.90;;;;;;5010668;28;20033;-77
2023/01/06 07:01:38;;;;;;;2.10;1.15;;;10.00;99.90;;;;;;5012657;28;20038;-77
2023/01/06 07:04:04;;;;;;;6.95;1.08;;;10.00;99.90;;;;;;5011489;28;20038;-76
2023/01/06 07:06:30;;;;;;;2.17;0.80;;;9.90;99.90;;;;;;5006830;28;20063;-77
2023/01/06 07:08:56;;;;;;;1.23;0.65;;;9.90;99.90;;;;;;5020566;28;20501;-76
2023/01/06 07:11:22;;;;;;;1.23;0.73;;;9.90;99.90;;;;;;5027789;28;20061;-75
2023/01/06 07:13:48;;;;;;;1.83;0.85;;;9.90;99.90;;;;;;5012397;28;20034;-77
2023/01/06 07:16:14;;;;;;;1.88;1.13;;;9.90;99.90;;;;;;5016819;28;20037;-77
2023/01/06 07:18:40;;;;;;;1.08;0.68;;;10.00;99.90;;;;;;5007459;28;20438;-76
2023/01/06 07:21:07;;;;;;;1.35;0.63;;;10.00;99.90;;;;;;5017186;28;20078;-76
2023/01/06 07:23:33;;;;;;;2.15;0.30;;;10.00;99.90;;;;;;4998892;23;20047;-73
2023/01/06 07:26:03;;;;;;;4.32;0.60;;;10.00;99.90;;;;;;4972281;28;20039;-73
2023/01/06 07:28:31;;;;;;;0.55;0.20;;;10.00;99.90;;;;;;4960906;28;20038;-72
2023/01/06 07:30:56;;;;;;;4.88;1.15;;;9.90;99.90;;;;;;4972640;28;20034;-71
2023/01/06 07:33:22;;;;;;;1.38;0.70;;;9.90;99.90;;;;;;4985083;28;20486;-72
2023/01/06 07:35:53;;;;;;;1.02;0.45;;;10.00;99.90;;;;;;4992803;28;20045;-75
2023/01/06 07:38:19;;;;;;;0.30;0.30;;;10.00;99.90;;;;;;4986504;28;20096;-73
2023/01/06 07:40:44;;;;;;;0.40;0.40;;;10.00;99.90;;;;;;4992915;28;20037;-71
2023/01/06 07:43:10;;;;;;;0.10;0.10;;;10.10;99.90;;;;;;4992039;28;20061;-74
2023/01/06 07:45:37;;;;;;;1.85;0.73;;;10.10;99.90;;;;;;4984230;28;20073;-74
2023/01/06 07:48:03;;;;;;;0.55;0.35;;;10.20;99.90;;;;;;4983862;28;20081;-76
2023/01/06 07:50:29;;;;;;;1.48;0.25;;;10.20;99.90;;;;;;4980494;28;20135;-76
2023/01/06 07:53:00;;;;;;;0.17;0.17;;;10.30;99.90;;;;;;4980156;28;20038;-75
2023/01/06 07:55:27;;;;;;;0.22;0.22;;;10.30;99.90;;;;;;4988077;28;20046;-73
2023/01/06 07:57:53;;;;;;;0.10;0.10;;;10.30;99.90;;;;;;4959266;28;20081;-71
2023/01/06 08:00:19;;;;;;;5.00;0.57;;;10.40;99.90;;;;;;4981547;28;20551;-71
2023/01/06 08:02:45;;;;;;;0.10;0.10;;;10.40;99.90;;;;;;4978624;28;20037;-71
2023/01/06 08:05:11;;;;;;;1.42;0.20;;;10.50;99.90;;;;;;4979382;28;20030;-71
2023/01/06 08:07:36;;;;;;;0.60;0.17;;;10.50;99.90;;;;;;4974585;28;20470;-71
2023/01/06 08:10:03;;;;;;;2.30;0.75;;;10.50;99.90;;;;;;4977994;28;20041;-72
2023/01/06 08:12:28;;;;;;;0.40;0.22;;;10.50;99.90;;;;;;4979352;28;20552;-72
2023/01/06 08:14:54;;;;;;;3.35;0.47;;;10.60;99.90;;;;;;4987528;28;20038;-71
2023/01/06 08:17:20;;;;;;;3.95;0.35;;;10.50;99.90;;;;;;4983234;28;20034;-72
2023/01/06 08:19:46;;;;;;;1.75;0.40;;;10.50;99.90;;;;;;4980294;28;20505;-72
2023/01/06 08:22:11;;;;;;;0.38;0.30;;;10.40;99.90;;;;;;4978552;28;20121;-73
2023/01/06 08:24:37;;;;;;;0.55;0.28;;;10.50;99.90;;;;;;4977180;28;20490;-73
2023/01/06 08:27:03;;;;;;;0.10;0.10;;;10.40;99.90;;;;;;4975278;28;20042;-73
2023/01/06 08:29:28;;;;;;;0.65;0.15;;;10.60;99.90;;;;;;4980107;28;20449;-73
2023/01/06 08:31:54;;;;;;;0.25;0.10;;;10.60;99.90;;;;;;4979280;28;20490;-72
2023/01/06 08:34:20;;;;;;;0.10;0.10;;;10.60;99.90;;;;;;4975608;28;20120;-73
2023/01/06 08:36:45;;;;;;;0.28;0.28;;;10.60;99.90;;;;;;4983052;28;20612;-73
2023/01/06 08:39:13;;;;;;;2.10;0.15;;;10.60;99.90;;;;;;4978049;28;20065;-74
2023/01/06 08:41:39;;;;;;;0.15;0.15;;;10.70;99.90;;;;;;4974426;28;20045;-73
2023/01/06 08:44:06;;;;;;;2.65;0.73;;;10.70;99.90;;;;;;4980940;28;20935;-73
2023/01/06 08:46:32;;;;;;;1.55;0.28;;;10.70;99.90;;;;;;4961669;28;20040;-73
2023/01/06 08:48:58;;;;;;;0.00;0.00;;;10.70;99.90;;;;;;4972821;28;20730;-72
2023/01/06 08:51:25;;;;;;;0.47;0.10;;;10.70;99.90;;;;;;4977002;28;20160;-72
2023/01/06 08:53:52;;;;;;;0.77;0.38;;;10.80;99.90;;;;;;4972710;28;20099;-70
2023/01/06 08:56:28;;;;;;;0.22;0.20;;;10.70;99.90;;;;;;4971909;28;20085;-71
2023/01/06 08:58:57;;;;;;;3.95;0.38;;;10.80;99.90;;;;;;4993015;28;20034;-72
2023/01/06 09:01:36;;;;;;;0.10;0.10;;;10.90;99.90;;;;;;4983284;28;20112;-71
2023/01/06 09:04:05;;;;;;;0.10;0.10;;;10.90;99.90;;;;;;4974734;28;20037;-71
2023/01/06 09:06:31;;;;;;;0.38;0.20;;;10.80;99.90;;;;;;4996073;28;20041;-71
2023/01/06 09:08:57;;;;;;;1.95;0.47;;;10.90;99.90;;;;;;4985737;28;20031;-72
2023/01/06 09:11:23;;;;;;;0.20;0.10;;;10.90;99.90;;;;;;4968324;28;20050;-73
2023/01/06 09:13:50;;;;;;;2.15;0.35;;;10.90;99.90;;;;;;4995473;28;20422;-73
2023/01/06 09:16:17;;;;;;;0.40;0.20;;;11.00;99.90;;;;;;4988506;28;20121;-73
2023/01/06 09:18:48;;;;;;;0.55;0.30;;;11.00;99.90;;;;;;4990494;28;20038;-73
2023/01/06 09:21:19;;;;;;;0.15;0.10;;;11.00;99.90;;;;;;4986095;28;20105;-73
2023/01/06 09:23:46;;;;;;;0.65;0.38;;;11.00;99.90;;;;;;4990493;28;20038;-71
2023/01/06 09:26:16;;;;;;;0.25;0.17;;;11.00;99.90;;;;;;4990464;28;20030;-73
2023/01/06 09:28:41;;;;;;;0.40;0.30;;;11.00;99.90;;;;;;4991433;28;20038;-72
2023/01/06 09:31:08;;;;;;;1.02;0.40;;;10.90;99.90;;;;;;4990130;28;20026;-73
2023/01/06 09:33:35;;;;;;;0.90;0.68;;;10.90;99.90;;;;;;4990020;28;20061;-72
2023/01/06 09:36:01;;;;;;;1.05;0.40;;;10.90;99.90;;;;;;4989629;28;20815;-72
2023/01/06 09:38:27;;;;;;;5.22;0.43;;;10.90;99.90;;;;;;4989346;28;20518;-71
2023/01/06 09:41:25;;;;;;;0.88;0.77;;;10.90;99.90;;;;;;4989986;28;20053;-71
2023/01/06 09:44:10;;;;;;;0.57;0.28;;;10.90;99.90;;;;;;4991135;28;20038;-70
2023/01/06 09:46:40;;;;;;;1.23;0.75;;;10.90;99.90;;;;;;4990018;28;20088;-71
2023/01/06 09:50:03;;;;;;;0.90;0.47;;;11.00;99.90;;;;;;4991171;28;20096;-72
2023/01/06 09:52:39;;;;;;;0.90;0.40;;;10.90;99.90;;;;;;4985442;28;20112;-71
2023/01/06 09:55:27;;;;;;;2.58;0.70;;;11.00;99.90;;;;;;5005819;28;20035;-71
2023/01/06 09:58:04;;;;;;;3.08;0.63;;;11.10;99.90;;;;;;4987793;28;20121;-71
2023/01/06 10:00:52;;;;;;;4.28;0.63;;;11.10;99.90;;;;;;4989054;28;20655;-70
2023/01/06 10:03:26;;;;;;;1.35;0.65;;;11.10;99.90;;;;;;4990511;28;20121;-71
2023/01/06 10:06:29;;;;;;;0.77;0.38;;;11.20;99.90;;;;;;4989621;28;20026;-71
2023/01/06 10:09:21;;;;;;;1.85;0.80;;;11.20;99.90;;;;;;4990861;28;20038;-70
2023/01/06 10:12:24;;;;;;;;;;;11.20;99.90;;;;;;4990363;28;20483;-71
2023/01/06 10:15:15;;;;;;;1.63;0.60;;;11.30;99.90;;;;;;4990709;28;19914;-72
2023/01/06 10:17:59;;;;;;;2.83;1.23;;;11.40;99.90;;;;;;5005140;28;20390;-72
2023/01/06 10:20:34;;;;;;;1.02;0.65;;;11.50;99.90;;;;;;4970942;28;20030;-70
2023/01/06 10:23:31;;;;;;;0.57;0.35;;;11.40;99.90;;;;;;4989488;28;20080;-71
2023/01/06 10:26:11;;;;;;;2.83;1.02;;;11.50;99.90;;;;;;4990006;28;20026;-71
2023/01/06 10:28:44;;;;;;;1.80;0.65;;;11.40;99.90;;;;;;4986045;28;20402;-71
2023/01/06 10:31:22;;;;;;;0.93;0.45;;;11.30;99.90;;;;;;4989726;28;20042;-71
2023/01/06 10:33:53;;;;;;;1.45;0.63;;;11.30;99.90;;;;;;4989714;28;20038;-71
2023/01/06 10:37:01;;;;;;;0.30;0.30;;;11.40;99.90;;;;;;4988822;28;20032;-70
2023/01/06 10:39:28;;;;;;;0.20;0.15;;;11.30;99.90;;;;;;4983219;28;20124;-71
2023/01/06 10:45:00;;;;;;;0.98;0.30;;;11.30;99.90;;;;;;4983120;28;20034;-73
2023/01/06 10:47:33;;;;;;;0.68;0.20;;;11.40;99.90;;;;;;4985741;28;20041;-72
2023/01/06 10:49:59;;;;;;;0.10;0.10;;;11.30;99.90;;;;;;4988945;28;20437;-74
2023/01/06 10:52:26;;;;;;;0.80;0.30;;;11.30;99.90;;;;;;4980987;28;20034;-72
2023/01/06 10:54:58;;;;;;;0.85;0.50;;;11.40;99.90;;;;;;4991784;28;20038;-72
2023/01/06 10:57:31;;;;;;;0.45;0.35;;;11.50;99.90;;;;;;4986516;28;20042;-72
2023/01/06 11:00:12;;;;;;;1.25;0.68;;;11.50;99.90;;;;;;5003543;28;20019;-71
2023/01/06 11:02:42;;;;;;;;;;;11.40;99.90;;;;;;4988737;28;20643;-69
2023/01/06 11:05:16;;;;;;;0.70;0.57;;;11.40;99.90;;;;;;4992153;28;19924;-71
2023/01/06 11:07:56;;;;;;;0.85;0.35;;;11.40;99.90;;;;;;4993831;28;20033;-67
2023/01/06 11:10:42;;;;;;;0.20;0.20;;;11.50;99.90;;;;;;4993801;28;20034;-69
2023/01/06 11:13:31;;;;;;;0.95;0.40;;;11.50;99.90;;;;;;4985150;28;20030;-69
2023/01/06 11:16:16;;;;;;;0.10;0.10;;;11.50;99.90;;;;;;5006050;28;20022;-72
2023/01/06 11:18:42;;;;;;;1.05;0.43;;;11.50;99.90;;;;;;4992596;28;20030;-72
2023/01/06 11:21:15;;;;;;;0.32;0.32;;;11.50;99.90;;;;;;4992913;28;20104;-71
2023/01/06 11:23:43;;;;;;;0.43;0.20;;;11.50;99.90;;;;;;4972686;28;20418;-74
2023/01/06 11:26:11;;;;;;;4.90;0.30;;;11.50;99.90;;;;;;4995518;28;20030;-75
2023/01/06 11:28:42;;;;;;;1.02;0.55;;;11.50;99.90;;;;;;4991898;28;20046;-73
2023/01/06 11:31:09;;;;;;;;;;;11.50;99.90;;;;;;5007944;28;20065;-71
2023/01/06 11:33:46;;;;;;;3.67;0.25;;;11.40;99.90;;;;;;5007495;28;19913;-72
2023/01/06 11:36:13;;;;;;;0.35;0.20;;;11.40;99.90;;;;;;4985240;28;20081;-73
2023/01/06 11:38:56;;;;;;;6.20;0.30;;;11.40;99.90;;;;;;4983971;28;20100;-71
2023/01/06 11:41:31;;;;;;;0.40;0.40;;;11.40;99.90;;;;;;5004310;28;20034;-72
2023/01/06 11:44:18;;;;;;;1.60;0.35;;;11.40;99.90;;;;;;4991987;28;20418;-71
2023/01/06 11:46:56;;;;;;;0.22;0.15;;;11.50;99.90;;;;;;4987523;28;20439;-76
2023/01/06 11:49:40;;;;;;;0.47;0.28;;;11.40;99.90;;;;;;4992968;28;20058;-72
2023/01/06 11:52:31;;;;;;;0.10;0.10;;;11.40;99.90;;;;;;4992236;28;20105;-72
2023/01/06 11:55:18;;;;;;;0.47;0.20;;;11.30;99.90;;;;;;4992572;28;20018;-74
2023/01/06 11:58:02;;;;;;;0.52;0.20;;;11.30;99.90;;;;;;4969806;28;20042;-73
2023/01/06 12:00:51;;;;;;;0.00;0.00;;;11.30;99.90;;;;;;4986782;28;20442;-73
2023/01/06 12:03:43;;;;;;;0.32;0.20;;;11.40;99.90;;;;;;4991893;28;20030;-73
2023/01/06 12:06:12;;;;;;;0.52;0.17;;;11.60;99.90;;;;;;5007661;28;20034;-73
2023/01/06 12:08:55;;;;;;;2.17;1.05;;;11.60;99.90;;;;;;4992384;28;20445;-72
2023/01/06 12:11:34;;;;;;;0.25;0.13;;;11.60;99.90;;;;;;4974079;28;20042;-72
2023/01/06 12:14:00;;;;;;;0.35;0.10;;;11.60;99.90;;;;;;4992695;28;20046;-74
2023/01/06 12:16:58;;;;;;;0.50;0.30;;;11.60;99.90;;;;;;4990625;28;20034;-73
2023/01/06 12:19:48;;;;;;;0.20;0.10;;;11.70;99.90;;;;;;4945354;28;20038;-73
2023/01/06 12:22:36;;;;;;;0.00;0.00;;;11.70;99.90;;;;;;4991210;28;20041;-73
2023/01/06 12:25:05;;;;;;;0.45;0.28;;;11.80;99.90;;;;;;4981534;28;20520;-73
2023/01/06 12:27:42;;;;;;;0.52;0.32;;;11.70;99.90;;;;;;4983185;28;20080;-73
2023/01/06 12:30:33;;;;;;;0.20;0.15;;;11.60;99.90;;;;;;4979633;28;20048;-73
2023/01/06 12:33:44;;;;;;;0.03;0.00;;;11.60;99.90;;;;;;4995846;28;20097;-72
2023/01/06 12:36:29;;;;;;;0.15;0.10;;;11.60;99.90;;;;;;4946176;28;20573;-74
2023/01/06 12:39:10;;;;;;;0.00;0.00;;;11.60;99.90;;;;;;4964533;28;20034;-73
2023/01/06 12:42:01;;;;;;;0.00;0.00;;;11.70;99.90;;;;;;4972876;28;20418;-72
2023/01/06 12:45:06;;;;;;;0.38;0.10;;;11.80;99.90;;;;;;4979618;28;20038;-74
2023/01/06 12:47:44;;;;;;;0.10;0.10;;;11.90;99.90;;;;;;4988315;28;20038;-75
2023/01/06 12:50:40;;;;;;;0.35;0.20;;;11.80;99.90;;;;;;5002604;28;20038;-73
2023/01/06 12:53:34;;;;;;;0.45;0.20;;;11.70;99.90;;;;;;4979522;28;20379;-73
2023/01/06 12:56:15;;;;;;;0.10;0.00;;;11.70;99.90;;;;;;5003454;28;20018;-73
2023/01/06 12:59:17;;;;;;;0.08;0.08;;;11.80;99.90;;;;;;4991147;28;20039;-73
2023/01/06 13:01:53;;;;;;;0.30;0.20;;;11.80;99.90;;;;;;4982348;28;20041;-73
2023/01/06 13:04:58;;;;;;;0.80;0.20;;;11.70;99.90;;;;;;4983256;28;20030;-73
2023/01/06 13:07:52;;;;;;;0.25;0.10;;;11.70;99.90;;;;;;4989688;28;20034;-73
2023/01/06 13:10:33;;;;;;;0.20;0.00;;;11.60;99.90;;;;;;4972995;28;20045;-73
2023/01/06 13:13:28;;;;;;;0.43;0.30;;;11.60;99.90;;;;;;5003970;28;20109;-73
2023/01/06 13:15:59;;;;;;;0.20;0.10;;;11.60;99.90;;;;;;4969568;28;20450;-73
2023/01/06 13:18:50;;;;;;;2.10;0.20;;;11.70;99.90;;;;;;4984634;28;20035;-73
2023/01/06 13:21:20;;;;;;;0.00;0.00;;;11.70;99.90;;;;;;5005580;28;20031;-74
2023/01/06 13:24:13;;;;;;;0.57;0.50;;;11.80;99.90;;;;;;5043548;23;20056;-87